ADDS TAF Data INFO
IDs: Format: Raw Decoded Include METARs

Data at: 0857 UTC 18 Aug 2017

TAF for:KSJC (San Jose Intl Arpt, CA, US) issued at 0524 UTC 18 Aug 2017
Text:KSJC 180524Z 1806/1906 30006KT P6SM SKC
Forecast period:0600 to 0700 UTC 18 August 2017
Forecast type:FROM: standard forecast or significant change
Winds:from the WNW (300 degrees) at 7 MPH (6 knots; 3.1 m/s)
Visibility:6 or more sm (10+ km)
Ceiling:at least 12,000 feet AGL
Clouds:clear skies
Text:FM180700 VRB03KT P6SM SKC
Forecast period:0700 to 2000 UTC 18 August 2017
Forecast type:FROM: standard forecast or significant change
Winds:variable direction winds at 3 MPH (3 knots; 1.5 m/s)
Visibility:6 or more sm (10+ km)
Ceiling:at least 12,000 feet AGL
Clouds:clear skies
Text:FM182000 30010KT P6SM SKC
Forecast period:2000 UTC 18 August 2017 to 0400 UTC 19 August 2017
Forecast type:FROM: standard forecast or significant change
Winds:from the WNW (300 degrees) at 12 MPH (10 knots; 5.1 m/s)
Visibility:6 or more sm (10+ km)
Ceiling:at least 12,000 feet AGL
Clouds:clear skies
Text:FM190400 31005KT P6SM SKC
Forecast period:0400 to 0600 UTC 19 August 2017
Forecast type:FROM: standard forecast or significant change
Winds:from the NW (310 degrees) at 6 MPH (5 knots; 2.6 m/s)
Visibility:6 or more sm (10+ km)
Ceiling:at least 12,000 feet AGL
Clouds:clear skies